sensor_id;sensor_type;location;lat;lon;timestamp;P1;durP1;ratioP1;P2;durP2;ratioP2
40284;SDS011;25997;50.214;19.354;2023-11-19T00:02:03;14.38;;;11.07;;
40284;SDS011;25997;50.214;19.354;2023-11-19T00:05:08;15.05;;;10.82;;
40284;SDS011;25997;50.214;19.354;2023-11-19T00:08:12;13.98;;;11.27;;
40284;SDS011;25997;50.214;19.354;2023-11-19T00:11:14;15.93;;;11.80;;
40284;SDS011;25997;50.214;19.354;2023-11-19T00:14:17;14.75;;;11.48;;
40284;SDS011;25997;50.214;19.354;2023-11-19T00:17:21;13.57;;;9.60;;
40284;SDS011;25997;50.214;19.354;2023-11-19T00:20:23;15.23;;;10.27;;
40284;SDS011;25997;50.214;19.354;2023-11-19T00:23:26;14.20;;;10.57;;
40284;SDS011;25997;50.214;19.354;2023-11-19T00:26:29;14.75;;;10.55;;
40284;SDS011;25997;50.214;19.354;2023-11-19T00:29:32;15.20;;;11.05;;
40284;SDS011;25997;50.214;19.354;2023-11-19T00:32:36;15.02;;;10.77;;
40284;SDS011;25997;50.214;19.354;2023-11-19T00:35:39;16.65;;;11.30;;
40284;SDS011;25997;50.214;19.354;2023-11-19T00:38:42;16.55;;;11.70;;
40284;SDS011;25997;50.214;19.354;2023-11-19T00:41:44;16.50;;;11.57;;
40284;SDS011;25997;50.214;19.354;2023-11-19T00:44:47;18.02;;;11.95;;
40284;SDS011;25997;50.214;19.354;2023-11-19T00:47:51;16.13;;;11.23;;
40284;SDS011;25997;50.214;19.354;2023-11-19T00:50:54;17.88;;;11.60;;
40284;SDS011;25997;50.214;19.354;2023-11-19T00:53:56;14.68;;;11.02;;
40284;SDS011;25997;50.214;19.354;2023-11-19T00:56:59;13.18;;;10.23;;
40284;SDS011;25997;50.214;19.354;2023-11-19T01:00:03;13.18;;;9.73;;
40284;SDS011;25997;50.214;19.354;2023-11-19T01:03:16;14.85;;;10.13;;
40284;SDS011;25997;50.214;19.354;2023-11-19T01:06:26;15.95;;;11.88;;
40284;SDS011;25997;50.214;19.354;2023-11-19T01:09:29;14.43;;;11.30;;
40284;SDS011;25997;50.214;19.354;2023-11-19T01:12:33;14.27;;;11.43;;
40284;SDS011;25997;50.214;19.354;2023-11-19T01:15:36;16.70;;;12.38;;
40284;SDS011;25997;50.214;19.354;2023-11-19T01:18:40;16.58;;;10.95;;
40284;SDS011;25997;50.214;19.354;2023-11-19T01:21:43;16.90;;;11.65;;
40284;SDS011;25997;50.214;19.354;2023-11-19T01:24:54;14.65;;;11.50;;
40284;SDS011;25997;50.214;19.354;2023-11-19T01:27:59;19.95;;;12.60;;
40284;SDS011;25997;50.214;19.354;2023-11-19T01:31:03;26.13;;;16.77;;
40284;SDS011;25997;50.214;19.354;2023-11-19T01:34:07;18.95;;;13.80;;
40284;SDS011;25997;50.214;19.354;2023-11-19T01:37:10;15.68;;;11.95;;
40284;SDS011;25997;50.214;19.354;2023-11-19T01:40:14;38.47;;;20.85;;
40284;SDS011;25997;50.214;19.354;2023-11-19T01:43:34;32.92;;;20.40;;
40284;SDS011;25997;50.214;19.354;2023-11-19T01:46:37;21.52;;;15.60;;
40284;SDS011;25997;50.214;19.354;2023-11-19T01:49:41;18.52;;;11.88;;
40284;SDS011;25997;50.214;19.354;2023-11-19T01:52:44;24.38;;;16.05;;
40284;SDS011;25997;50.214;19.354;2023-11-19T01:55:46;20.15;;;14.38;;
40284;SDS011;25997;50.214;19.354;2023-11-19T01:58:50;18.00;;;12.95;;
40284;SDS011;25997;50.214;19.354;2023-11-19T02:01:52;15.75;;;11.65;;
40284;SDS011;25997;50.214;19.354;2023-11-19T02:04:57;14.57;;;10.82;;
40284;SDS011;25997;50.214;19.354;2023-11-19T02:08:00;14.68;;;11.27;;
40284;SDS011;25997;50.214;19.354;2023-11-19T02:11:03;14.52;;;10.45;;
40284;SDS011;25997;50.214;19.354;2023-11-19T02:14:07;16.27;;;10.48;;
40284;SDS011;25997;50.214;19.354;2023-11-19T02:17:24;13.90;;;10.20;;
40284;SDS011;25997;50.214;19.354;2023-11-19T02:20:29;15.07;;;10.60;;
40284;SDS011;25997;50.214;19.354;2023-11-19T02:23:32;14.50;;;10.52;;
40284;SDS011;25997;50.214;19.354;2023-11-19T02:26:38;16.58;;;11.40;;
40284;SDS011;25997;50.214;19.354;2023-11-19T02:29:47;20.30;;;13.95;;
40284;SDS011;25997;50.214;19.354;2023-11-19T02:32:50;21.77;;;15.48;;
40284;SDS011;25997;50.214;19.354;2023-11-19T02:35:52;17.45;;;11.32;;
40284;SDS011;25997;50.214;19.354;2023-11-19T02:38:56;15.55;;;12.05;;
40284;SDS011;25997;50.214;19.354;2023-11-19T02:41:58;15.32;;;11.43;;
40284;SDS011;25997;50.214;19.354;2023-11-19T02:45:02;15.38;;;11.77;;
40284;SDS011;25997;50.214;19.354;2023-11-19T02:48:07;15.32;;;11.20;;
40284;SDS011;25997;50.214;19.354;2023-11-19T02:51:10;16.30;;;11.15;;
40284;SDS011;25997;50.214;19.354;2023-11-19T02:54:13;14.35;;;9.90;;
40284;SDS011;25997;50.214;19.354;2023-11-19T02:57:15;12.45;;;10.05;;
40284;SDS011;25997;50.214;19.354;2023-11-19T03:00:21;14.88;;;10.13;;
40284;SDS011;25997;50.214;19.354;2023-11-19T03:03:28;13.48;;;10.23;;
40284;SDS011;25997;50.214;19.354;2023-11-19T03:06:39;14.43;;;10.48;;
40284;SDS011;25997;50.214;19.354;2023-11-19T03:09:42;14.60;;;10.50;;
40284;SDS011;25997;50.214;19.354;2023-11-19T03:12:45;15.75;;;10.25;;
40284;SDS011;25997;50.214;19.354;2023-11-19T03:15:48;11.93;;;9.50;;
40284;SDS011;25997;50.214;19.354;2023-11-19T03:18:52;13.27;;;10.65;;
40284;SDS011;25997;50.214;19.354;2023-11-19T03:21:54;15.73;;;12.13;;
40284;SDS011;25997;50.214;19.354;2023-11-19T03:24:57;13.57;;;11.10;;
40284;SDS011;25997;50.214;19.354;2023-11-19T03:28:00;15.73;;;12.18;;
40284;SDS011;25997;50.214;19.354;2023-11-19T03:31:05;15.65;;;12.30;;
40284;SDS011;25997;50.214;19.354;2023-11-19T03:34:09;17.48;;;13.50;;
40284;SDS011;25997;50.214;19.354;2023-11-19T03:37:12;17.52;;;12.45;;
40284;SDS011;25997;50.214;19.354;2023-11-19T03:40:18;15.40;;;12.15;;
40284;SDS011;25997;50.214;19.354;2023-11-19T03:43:20;16.50;;;11.63;;
40284;SDS011;25997;50.214;19.354;2023-11-19T03:46:24;17.25;;;13.60;;
40284;SDS011;25997;50.214;19.354;2023-11-19T03:49:27;18.10;;;13.43;;
40284;SDS011;25997;50.214;19.354;2023-11-19T03:52:30;17.20;;;13.55;;
40284;SDS011;25997;50.214;19.354;2023-11-19T03:55:32;17.73;;;13.63;;
40284;SDS011;25997;50.214;19.354;2023-11-19T03:58:35;18.85;;;13.38;;
40284;SDS011;25997;50.214;19.354;2023-11-19T04:01:40;20.17;;;13.82;;
40284;SDS011;25997;50.214;19.354;2023-11-19T04:04:43;17.13;;;12.18;;
40284;SDS011;25997;50.214;19.354;2023-11-19T04:07:45;21.40;;;14.73;;
40284;SDS011;25997;50.214;19.354;2023-11-19T04:10:48;20.88;;;14.95;;
40284;SDS011;25997;50.214;19.354;2023-11-19T04:13:50;25.40;;;18.60;;
40284;SDS011;25997;50.214;19.354;2023-11-19T04:16:54;29.95;;;18.30;;
40284;SDS011;25997;50.214;19.354;2023-11-19T04:19:57;25.05;;;17.75;;
40284;SDS011;25997;50.214;19.354;2023-11-19T04:23:00;26.85;;;17.33;;
40284;SDS011;25997;50.214;19.354;2023-11-19T04:26:02;24.05;;;16.60;;
40284;SDS011;25997;50.214;19.354;2023-11-19T04:29:05;27.70;;;17.95;;
40284;SDS011;25997;50.214;19.354;2023-11-19T04:32:10;29.13;;;19.25;;
40284;SDS011;25997;50.214;19.354;2023-11-19T04:35:13;32.20;;;20.90;;
40284;SDS011;25997;50.214;19.354;2023-11-19T04:38:15;30.13;;;17.92;;
40284;SDS011;25997;50.214;19.354;2023-11-19T04:41:18;26.02;;;16.05;;
40284;SDS011;25997;50.214;19.354;2023-11-19T04:44:21;29.08;;;18.35;;
40284;SDS011;25997;50.214;19.354;2023-11-19T04:47:25;27.00;;;16.95;;
40284;SDS011;25997;50.214;19.354;2023-11-19T04:50:27;22.10;;;15.65;;
40284;SDS011;25997;50.214;19.354;2023-11-19T04:53:30;20.23;;;14.80;;
40284;SDS011;25997;50.214;19.354;2023-11-19T04:56:32;20.02;;;14.98;;
40284;SDS011;25997;50.214;19.354;2023-11-19T04:59:35;18.83;;;14.23;;
40284;SDS011;25997;50.214;19.354;2023-11-19T05:02:40;21.05;;;13.93;;
40284;SDS011;25997;50.214;19.354;2023-11-19T05:05:42;20.00;;;14.50;;
40284;SDS011;25997;50.214;19.354;2023-11-19T05:08:45;19.88;;;14.43;;
40284;SDS011;25997;50.214;19.354;2023-11-19T05:11:47;22.83;;;15.18;;
40284;SDS011;25997;50.214;19.354;2023-11-19T05:14:50;22.20;;;16.65;;
40284;SDS011;25997;50.214;19.354;2023-11-19T05:17:54;24.50;;;15.88;;
40284;SDS011;25997;50.214;19.354;2023-11-19T05:20:56;23.98;;;16.40;;
40284;SDS011;25997;50.214;19.354;2023-11-19T05:23:59;23.98;;;16.33;;
40284;SDS011;25997;50.214;19.354;2023-11-19T05:27:02;24.35;;;16.02;;
40284;SDS011;25997;50.214;19.354;2023-11-19T05:30:05;20.85;;;14.68;;
40284;SDS011;25997;50.214;19.354;2023-11-19T05:33:10;23.35;;;15.30;;
40284;SDS011;25997;50.214;19.354;2023-11-19T05:36:13;24.65;;;15.98;;
40284;SDS011;25997;50.214;19.354;2023-11-19T05:39:16;19.15;;;14.10;;
40284;SDS011;25997;50.214;19.354;2023-11-19T05:42:19;20.20;;;14.18;;
40284;SDS011;25997;50.214;19.354;2023-11-19T05:45:21;19.55;;;13.70;;
40284;SDS011;25997;50.214;19.354;2023-11-19T05:48:26;19.85;;;14.05;;
40284;SDS011;25997;50.214;19.354;2023-11-19T05:51:29;21.27;;;14.38;;
40284;SDS011;25997;50.214;19.354;2023-11-19T05:54:32;17.33;;;12.45;;
40284;SDS011;25997;50.214;19.354;2023-11-19T05:57:38;18.65;;;13.45;;
40284;SDS011;25997;50.214;19.354;2023-11-19T06:00:41;21.95;;;15.43;;
40284;SDS011;25997;50.214;19.354;2023-11-19T06:03:45;20.13;;;14.65;;
40284;SDS011;25997;50.214;19.354;2023-11-19T06:06:50;22.70;;;14.45;;
40284;SDS011;25997;50.214;19.354;2023-11-19T06:09:53;20.88;;;14.27;;
40284;SDS011;25997;50.214;19.354;2023-11-19T06:12:55;23.48;;;15.55;;
40284;SDS011;25997;50.214;19.354;2023-11-19T06:16:00;35.92;;;26.42;;
40284;SDS011;25997;50.214;19.354;2023-11-19T06:19:05;34.28;;;26.98;;
40284;SDS011;25997;50.214;19.354;2023-11-19T06:22:07;34.80;;;26.35;;
40284;SDS011;25997;50.214;19.354;2023-11-19T06:25:10;27.65;;;19.85;;
40284;SDS011;25997;50.214;19.354;2023-11-19T06:28:15;26.98;;;19.67;;
40284;SDS011;25997;50.214;19.354;2023-11-19T06:31:17;26.35;;;18.10;;
40284;SDS011;25997;50.214;19.354;2023-11-19T06:34:21;32.30;;;22.48;;
40284;SDS011;25997;50.214;19.354;2023-11-19T06:37:24;30.17;;;21.98;;
40284;SDS011;25997;50.214;19.354;2023-11-19T06:40:27;82.38;;;48.53;;
40284;SDS011;25997;50.214;19.354;2023-11-19T06:43:31;53.13;;;44.17;;
40284;SDS011;25997;50.214;19.354;2023-11-19T06:46:34;46.20;;;39.08;;
40284;SDS011;25997;50.214;19.354;2023-11-19T06:49:38;34.70;;;25.08;;
40284;SDS011;25997;50.214;19.354;2023-11-19T06:52:41;26.95;;;22.20;;
40284;SDS011;25997;50.214;19.354;2023-11-19T06:55:43;26.80;;;19.58;;
40284;SDS011;25997;50.214;19.354;2023-11-19T06:58:46;34.15;;;25.60;;
40284;SDS011;25997;50.214;19.354;2023-11-19T07:01:49;31.70;;;25.15;;
40284;SDS011;25997;50.214;19.354;2023-11-19T07:04:53;30.20;;;23.48;;
40284;SDS011;25997;50.214;19.354;2023-11-19T07:07:56;28.77;;;22.30;;
40284;SDS011;25997;50.214;19.354;2023-11-19T07:10:59;25.52;;;17.67;;
40284;SDS011;25997;50.214;19.354;2023-11-19T07:14:01;27.20;;;17.50;;
40284;SDS011;25997;50.214;19.354;2023-11-19T07:17:04;24.95;;;18.13;;
40284;SDS011;25997;50.214;19.354;2023-11-19T07:20:09;25.15;;;16.98;;
40284;SDS011;25997;50.214;19.354;2023-11-19T07:23:14;31.23;;;20.42;;
40284;SDS011;25997;50.214;19.354;2023-11-19T07:26:17;33.78;;;21.98;;
40284;SDS011;25997;50.214;19.354;2023-11-19T07:29:19;29.23;;;19.60;;
40284;SDS011;25997;50.214;19.354;2023-11-19T07:32:22;26.92;;;19.35;;
40284;SDS011;25997;50.214;19.354;2023-11-19T07:35:26;25.80;;;17.73;;
40284;SDS011;25997;50.214;19.354;2023-11-19T07:38:31;24.05;;;17.33;;
40284;SDS011;25997;50.214;19.354;2023-11-19T07:41:34;23.70;;;16.52;;
40284;SDS011;25997;50.214;19.354;2023-11-19T07:44:40;24.90;;;17.42;;
40284;SDS011;25997;50.214;19.354;2023-11-19T07:47:43;24.30;;;16.48;;
40284;SDS011;25997;50.214;19.354;2023-11-19T07:50:47;22.38;;;15.95;;
40284;SDS011;25997;50.214;19.354;2023-11-19T07:53:50;26.10;;;18.02;;
40284;SDS011;25997;50.214;19.354;2023-11-19T07:56:53;25.30;;;18.20;;
40284;SDS011;25997;50.214;19.354;2023-11-19T07:59:56;24.30;;;16.40;;
40284;SDS011;25997;50.214;19.354;2023-11-19T08:02:58;25.52;;;17.60;;
40284;SDS011;25997;50.214;19.354;2023-11-19T08:06:03;25.50;;;17.67;;
40284;SDS011;25997;50.214;19.354;2023-11-19T08:09:06;27.65;;;20.08;;
40284;SDS011;25997;50.214;19.354;2023-11-19T08:12:14;31.08;;;21.13;;
40284;SDS011;25997;50.214;19.354;2023-11-19T08:15:18;24.15;;;18.42;;
40284;SDS011;25997;50.214;19.354;2023-11-19T08:18:20;24.27;;;19.15;;
40284;SDS011;25997;50.214;19.354;2023-11-19T08:21:24;23.33;;;15.60;;
40284;SDS011;25997;50.214;19.354;2023-11-19T08:24:27;22.92;;;16.23;;
40284;SDS011;25997;50.214;19.354;2023-11-19T08:27:30;28.58;;;19.38;;
40284;SDS011;25997;50.214;19.354;2023-11-19T08:30:33;26.10;;;16.70;;
40284;SDS011;25997;50.214;19.354;2023-11-19T08:33:35;19.48;;;15.18;;
40284;SDS011;25997;50.214;19.354;2023-11-19T08:36:39;24.67;;;18.00;;
40284;SDS011;25997;50.214;19.354;2023-11-19T08:39:42;21.90;;;16.17;;
40284;SDS011;25997;50.214;19.354;2023-11-19T08:42:45;22.02;;;15.65;;
40284;SDS011;25997;50.214;19.354;2023-11-19T08:45:47;22.58;;;17.00;;
40284;SDS011;25997;50.214;19.354;2023-11-19T08:48:50;22.80;;;16.95;;
40284;SDS011;25997;50.214;19.354;2023-11-19T08:51:54;22.70;;;16.75;;
40284;SDS011;25997;50.214;19.354;2023-11-19T08:54:56;23.20;;;18.55;;
40284;SDS011;25997;50.214;19.354;2023-11-19T08:57:59;22.65;;;17.90;;
40284;SDS011;25997;50.214;19.354;2023-11-19T09:01:01;23.65;;;18.55;;
40284;SDS011;25997;50.214;19.354;2023-11-19T09:04:04;25.00;;;17.48;;
40284;SDS011;25997;50.214;19.354;2023-11-19T09:07:09;27.75;;;21.25;;
40284;SDS011;25997;50.214;19.354;2023-11-19T09:10:11;23.83;;;19.20;;
40284;SDS011;25997;50.214;19.354;2023-11-19T09:13:14;23.77;;;18.80;;
40284;SDS011;25997;50.214;19.354;2023-11-19T09:16:17;19.75;;;14.68;;
40284;SDS011;25997;50.214;19.354;2023-11-19T09:19:19;20.55;;;15.32;;
40284;SDS011;25997;50.214;19.354;2023-11-19T09:22:23;23.25;;;16.67;;
40284;SDS011;25997;50.214;19.354;2023-11-19T09:25:26;20.85;;;15.75;;
40284;SDS011;25997;50.214;19.354;2023-11-19T09:28:28;20.95;;;16.73;;
40284;SDS011;25997;50.214;19.354;2023-11-19T09:31:31;30.27;;;21.15;;
40284;SDS011;25997;50.214;19.354;2023-11-19T09:34:34;24.65;;;19.88;;
40284;SDS011;25997;50.214;19.354;2023-11-19T09:37:38;33.22;;;24.67;;
40284;SDS011;25997;50.214;19.354;2023-11-19T09:40:40;34.55;;;24.25;;
40284;SDS011;25997;50.214;19.354;2023-11-19T09:43:43;23.88;;;20.00;;
40284;SDS011;25997;50.214;19.354;2023-11-19T09:46:46;21.20;;;17.45;;
40284;SDS011;25997;50.214;19.354;2023-11-19T09:49:49;65.43;;;39.60;;
40284;SDS011;25997;50.214;19.354;2023-11-19T09:52:55;26.27;;;20.83;;
40284;SDS011;25997;50.214;19.354;2023-11-19T09:55:57;25.98;;;19.90;;
40284;SDS011;25997;50.214;19.354;2023-11-19T09:59:04;25.50;;;18.25;;
40284;SDS011;25997;50.214;19.354;2023-11-19T10:02:07;25.70;;;19.35;;
40284;SDS011;25997;50.214;19.354;2023-11-19T10:05:10;31.63;;;23.95;;
40284;SDS011;25997;50.214;19.354;2023-11-19T10:08:15;34.08;;;28.10;;
40284;SDS011;25997;50.214;19.354;2023-11-19T10:11:18;37.10;;;28.05;;
40284;SDS011;25997;50.214;19.354;2023-11-19T10:14:21;40.75;;;30.20;;
40284;SDS011;25997;50.214;19.354;2023-11-19T10:17:27;25.38;;;19.25;;
40284;SDS011;25997;50.214;19.354;2023-11-19T10:20:34;21.10;;;17.27;;
40284;SDS011;25997;50.214;19.354;2023-11-19T10:23:49;23.75;;;18.70;;
40284;SDS011;25997;50.214;19.354;2023-11-19T10:26:52;18.88;;;16.30;;
40284;SDS011;25997;50.214;19.354;2023-11-19T10:29:59;19.52;;;15.32;;
40284;SDS011;25997;50.214;19.354;2023-11-19T10:33:05;21.65;;;16.52;;
40284;SDS011;25997;50.214;19.354;2023-11-19T10:36:08;20.40;;;14.27;;
40284;SDS011;25997;50.214;19.354;2023-11-19T10:39:14;20.38;;;14.38;;
40284;SDS011;25997;50.214;19.354;2023-11-19T10:42:16;21.42;;;16.02;;
40284;SDS011;25997;50.214;19.354;2023-11-19T10:45:22;20.33;;;14.30;;
40284;SDS011;25997;50.214;19.354;2023-11-19T10:48:25;21.77;;;15.55;;
40284;SDS011;25997;50.214;19.354;2023-11-19T10:51:28;20.88;;;13.50;;
40284;SDS011;25997;50.214;19.354;2023-11-19T10:54:33;19.00;;;14.45;;
40284;SDS011;25997;50.214;19.354;2023-11-19T10:57:36;20.98;;;16.25;;
40284;SDS011;25997;50.214;19.354;2023-11-19T11:00:43;17.42;;;13.07;;
40284;SDS011;25997;50.214;19.354;2023-11-19T11:03:46;17.17;;;13.18;;
40284;SDS011;25997;50.214;19.354;2023-11-19T11:06:52;18.23;;;14.50;;
40284;SDS011;25997;50.214;19.354;2023-11-19T11:09:58;15.20;;;13.05;;
40284;SDS011;25997;50.214;19.354;2023-11-19T11:13:02;17.98;;;11.60;;
40284;SDS011;25997;50.214;19.354;2023-11-19T11:16:05;15.48;;;12.48;;
40284;SDS011;25997;50.214;19.354;2023-11-19T11:19:09;15.20;;;10.63;;
40284;SDS011;25997;50.214;19.354;2023-11-19T11:22:12;14.77;;;11.15;;
40284;SDS011;25997;50.214;19.354;2023-11-19T11:25:22;18.58;;;14.80;;
40284;SDS011;25997;50.214;19.354;2023-11-19T11:28:33;18.38;;;14.88;;
40284;SDS011;25997;50.214;19.354;2023-11-19T11:31:44;20.50;;;15.98;;
40284;SDS011;25997;50.214;19.354;2023-11-19T11:35:02;16.45;;;13.68;;
40284;SDS011;25997;50.214;19.354;2023-11-19T11:38:17;17.50;;;14.15;;
40284;SDS011;25997;50.214;19.354;2023-11-19T11:41:25;14.15;;;11.30;;
40284;SDS011;25997;50.214;19.354;2023-11-19T11:48:06;12.75;;;9.52;;
40284;SDS011;25997;50.214;19.354;2023-11-19T11:54:25;16.30;;;9.77;;
40284;SDS011;25997;50.214;19.354;2023-11-19T11:57:30;18.05;;;13.63;;
40284;SDS011;25997;50.214;19.354;2023-11-19T12:00:39;20.75;;;17.55;;
40284;SDS011;25997;50.214;19.354;2023-11-19T12:03:42;15.93;;;12.07;;
40284;SDS011;25997;50.214;19.354;2023-11-19T12:06:53;23.95;;;18.85;;
40284;SDS011;25997;50.214;19.354;2023-11-19T12:10:06;17.52;;;13.75;;
40284;SDS011;25997;50.214;19.354;2023-11-19T12:13:13;18.02;;;14.70;;
40284;SDS011;25997;50.214;19.354;2023-11-19T12:16:19;17.35;;;13.52;;
40284;SDS011;25997;50.214;19.354;2023-11-19T12:19:22;19.92;;;14.18;;
40284;SDS011;25997;50.214;19.354;2023-11-19T12:22:25;16.15;;;12.85;;
40284;SDS011;25997;50.214;19.354;2023-11-19T12:25:27;21.88;;;15.93;;
40284;SDS011;25997;50.214;19.354;2023-11-19T12:28:38;18.80;;;13.43;;
40284;SDS011;25997;50.214;19.354;2023-11-19T12:31:43;23.65;;;20.25;;
40284;SDS011;25997;50.214;19.354;2023-11-19T12:34:46;28.63;;;21.42;;
40284;SDS011;25997;50.214;19.354;2023-11-19T12:37:49;27.25;;;21.50;;
40284;SDS011;25997;50.214;19.354;2023-11-19T12:41:02;29.63;;;23.60;;
40284;SDS011;25997;50.214;19.354;2023-11-19T12:44:10;27.08;;;19.02;;
40284;SDS011;25997;50.214;19.354;2023-11-19T12:47:13;38.08;;;26.80;;
40284;SDS011;25997;50.214;19.354;2023-11-19T12:50:16;23.05;;;18.85;;
40284;SDS011;25997;50.214;19.354;2023-11-19T12:53:19;22.17;;;17.95;;
40284;SDS011;25997;50.214;19.354;2023-11-19T12:56:22;19.63;;;15.77;;
40284;SDS011;25997;50.214;19.354;2023-11-19T12:59:26;19.77;;;16.45;;
40284;SDS011;25997;50.214;19.354;2023-11-19T13:02:44;18.58;;;16.45;;
40284;SDS011;25997;50.214;19.354;2023-11-19T13:05:47;15.93;;;13.73;;
40284;SDS011;25997;50.214;19.354;2023-11-19T13:08:49;20.55;;;17.30;;
40284;SDS011;25997;50.214;19.354;2023-11-19T13:11:55;16.35;;;13.73;;
40284;SDS011;25997;50.214;19.354;2023-11-19T13:15:01;16.55;;;13.10;;
40284;SDS011;25997;50.214;19.354;2023-11-19T13:18:04;16.83;;;14.00;;
40284;SDS011;25997;50.214;19.354;2023-11-19T13:21:07;14.05;;;12.52;;
40284;SDS011;25997;50.214;19.354;2023-11-19T13:24:10;13.13;;;10.15;;
40284;SDS011;25997;50.214;19.354;2023-11-19T13:27:13;23.33;;;15.35;;
40284;SDS011;25997;50.214;19.354;2023-11-19T13:30:17;16.52;;;13.27;;
40284;SDS011;25997;50.214;19.354;2023-11-19T13:33:20;13.23;;;10.80;;
40284;SDS011;25997;50.214;19.354;2023-11-19T13:36:22;12.50;;;9.75;;
40284;SDS011;25997;50.214;19.354;2023-11-19T13:39:26;18.50;;;15.40;;
40284;SDS011;25997;50.214;19.354;2023-11-19T13:42:28;12.23;;;10.60;;
40284;SDS011;25997;50.214;19.354;2023-11-19T13:45:32;12.65;;;10.45;;
40284;SDS011;25997;50.214;19.354;2023-11-19T13:48:35;12.00;;;10.55;;
40284;SDS011;25997;50.214;19.354;2023-11-19T13:51:37;11.85;;;8.80;;
40284;SDS011;25997;50.214;19.354;2023-11-19T13:54:40;12.10;;;9.13;;
40284;SDS011;25997;50.214;19.354;2023-11-19T13:57:42;15.23;;;11.32;;
40284;SDS011;25997;50.214;19.354;2023-11-19T14:00:47;14.68;;;10.80;;
40284;SDS011;25997;50.214;19.354;2023-11-19T14:03:49;9.10;;;7.15;;
40284;SDS011;25997;50.214;19.354;2023-11-19T14:06:52;9.35;;;7.78;;
40284;SDS011;25997;50.214;19.354;2023-11-19T14:09:56;11.27;;;8.80;;
40284;SDS011;25997;50.214;19.354;2023-11-19T14:12:58;12.38;;;11.07;;
40284;SDS011;25997;50.214;19.354;2023-11-19T14:16:02;13.73;;;10.80;;
40284;SDS011;25997;50.214;19.354;2023-11-19T14:19:07;11.77;;;9.45;;
40284;SDS011;25997;50.214;19.354;2023-11-19T14:22:09;13.82;;;9.52;;
40284;SDS011;25997;50.214;19.354;2023-11-19T14:25:12;13.57;;;11.93;;
40284;SDS011;25997;50.214;19.354;2023-11-19T14:28:14;15.15;;;12.25;;
40284;SDS011;25997;50.214;19.354;2023-11-19T14:31:18;15.95;;;12.00;;
40284;SDS011;25997;50.214;19.354;2023-11-19T14:34:21;18.80;;;15.38;;
40284;SDS011;25997;50.214;19.354;2023-11-19T14:37:25;20.88;;;16.40;;
40284;SDS011;25997;50.214;19.354;2023-11-19T14:40:28;16.17;;;12.63;;
40284;SDS011;25997;50.214;19.354;2023-11-19T14:43:30;15.82;;;12.48;;
40284;SDS011;25997;50.214;19.354;2023-11-19T14:46:34;18.60;;;14.13;;
40284;SDS011;25997;50.214;19.354;2023-11-19T14:49:37;19.92;;;13.75;;
40284;SDS011;25997;50.214;19.354;2023-11-19T14:52:39;15.93;;;11.55;;
40284;SDS011;25997;50.214;19.354;2023-11-19T14:55:42;18.83;;;13.23;;
40284;SDS011;25997;50.214;19.354;2023-11-19T14:58:44;15.48;;;12.43;;
40284;SDS011;25997;50.214;19.354;2023-11-19T15:01:48;16.98;;;13.75;;
40284;SDS011;25997;50.214;19.354;2023-11-19T15:04:51;19.42;;;14.52;;
40284;SDS011;25997;50.214;19.354;2023-11-19T15:07:53;21.48;;;17.02;;
40284;SDS011;25997;50.214;19.354;2023-11-19T15:10:56;21.38;;;17.63;;
40284;SDS011;25997;50.214;19.354;2023-11-19T15:13:59;19.67;;;14.30;;
40284;SDS011;25997;50.214;19.354;2023-11-19T15:17:03;18.77;;;15.98;;
40284;SDS011;25997;50.214;19.354;2023-11-19T15:20:07;25.45;;;19.88;;
40284;SDS011;25997;50.214;19.354;2023-11-19T15:23:11;19.80;;;15.35;;
40284;SDS011;25997;50.214;19.354;2023-11-19T15:26:13;21.55;;;15.65;;
40284;SDS011;25997;50.214;19.354;2023-11-19T15:29:16;21.88;;;17.02;;
40284;SDS011;25997;50.214;19.354;2023-11-19T15:32:20;23.00;;;19.45;;
40284;SDS011;25997;50.214;19.354;2023-11-19T15:35:23;23.98;;;19.77;;
40284;SDS011;25997;50.214;19.354;2023-11-19T15:38:26;21.52;;;17.63;;
40284;SDS011;25997;50.214;19.354;2023-11-19T15:41:29;22.65;;;18.80;;
40284;SDS011;25997;50.214;19.354;2023-11-19T15:44:32;22.00;;;18.05;;
40284;SDS011;25997;50.214;19.354;2023-11-19T15:47:36;23.00;;;17.83;;
40284;SDS011;25997;50.214;19.354;2023-11-19T15:50:39;20.30;;;15.30;;
40284;SDS011;25997;50.214;19.354;2023-11-19T15:53:41;18.00;;;14.70;;
40284;SDS011;25997;50.214;19.354;2023-11-19T15:56:44;15.32;;;13.32;;
40284;SDS011;25997;50.214;19.354;2023-11-19T15:59:47;19.08;;;14.68;;
40284;SDS011;25997;50.214;19.354;2023-11-19T16:02:53;17.83;;;15.35;;
40284;SDS011;25997;50.214;19.354;2023-11-19T16:05:57;17.90;;;14.15;;
40284;SDS011;25997;50.214;19.354;2023-11-19T16:08:59;14.85;;;11.88;;
40284;SDS011;25997;50.214;19.354;2023-11-19T16:12:02;15.63;;;12.45;;
40284;SDS011;25997;50.214;19.354;2023-11-19T16:15:06;17.45;;;12.38;;
40284;SDS011;25997;50.214;19.354;2023-11-19T16:18:13;14.45;;;11.15;;
40284;SDS011;25997;50.214;19.354;2023-11-19T16:21:15;12.07;;;10.10;;
40284;SDS011;25997;50.214;19.354;2023-11-19T16:24:18;9.05;;;7.45;;
40284;SDS011;25997;50.214;19.354;2023-11-19T16:27:21;10.80;;;8.40;;
40284;SDS011;25997;50.214;19.354;2023-11-19T16:30:25;9.65;;;8.15;;
40284;SDS011;25997;50.214;19.354;2023-11-19T16:33:29;12.30;;;8.73;;
40284;SDS011;25997;50.214;19.354;2023-11-19T16:36:35;10.23;;;8.20;;
40284;SDS011;25997;50.214;19.354;2023-11-19T16:39:38;14.55;;;10.90;;
40284;SDS011;25997;50.214;19.354;2023-11-19T16:42:41;10.27;;;8.85;;
40284;SDS011;25997;50.214;19.354;2023-11-19T16:45:44;14.05;;;11.27;;
40284;SDS011;25997;50.214;19.354;2023-11-19T16:48:48;13.13;;;10.60;;
40284;SDS011;25997;50.214;19.354;2023-11-19T16:51:51;11.93;;;7.75;;
40284;SDS011;25997;50.214;19.354;2023-11-19T16:54:54;11.60;;;7.50;;
40284;SDS011;25997;50.214;19.354;2023-11-19T16:57:57;8.88;;;7.95;;
40284;SDS011;25997;50.214;19.354;2023-11-19T17:01:01;8.38;;;7.45;;
40284;SDS011;25997;50.214;19.354;2023-11-19T17:04:05;10.52;;;8.30;;
40284;SDS011;25997;50.214;19.354;2023-11-19T17:07:08;9.50;;;7.07;;
40284;SDS011;25997;50.214;19.354;2023-11-19T17:10:11;14.85;;;12.32;;
40284;SDS011;25997;50.214;19.354;2023-11-19T17:13:14;11.15;;;9.73;;
40284;SDS011;25997;50.214;19.354;2023-11-19T17:16:17;8.23;;;6.78;;
40284;SDS011;25997;50.214;19.354;2023-11-19T17:19:21;10.93;;;8.80;;
40284;SDS011;25997;50.214;19.354;2023-11-19T17:22:24;8.30;;;7.03;;
40284;SDS011;25997;50.214;19.354;2023-11-19T17:25:26;11.18;;;9.95;;
40284;SDS011;25997;50.214;19.354;2023-11-19T17:28:29;13.70;;;12.25;;
40284;SDS011;25997;50.214;19.354;2023-11-19T17:31:32;7.35;;;6.45;;
40284;SDS011;25997;50.214;19.354;2023-11-19T17:34:36;11.43;;;9.93;;
40284;SDS011;25997;50.214;19.354;2023-11-19T17:37:39;10.25;;;7.18;;
40284;SDS011;25997;50.214;19.354;2023-11-19T17:40:42;12.18;;;8.63;;
40284;SDS011;25997;50.214;19.354;2023-11-19T17:43:47;9.88;;;7.45;;
40284;SDS011;25997;50.214;19.354;2023-11-19T17:46:50;9.63;;;7.50;;
40284;SDS011;25997;50.214;19.354;2023-11-19T17:49:54;10.88;;;9.02;;